createdAt,value
2019-01-15T00:02:58.506Z,101021.89
2019-01-15T00:08:02.067Z,101020.13
2019-01-15T00:13:05.513Z,101015.24
2019-01-15T00:18:08.937Z,101028.66
2019-01-15T00:23:12.373Z,101031.14
2019-01-15T00:28:15.803Z,101011.08
2019-01-15T00:33:19.310Z,101015.33
2019-01-15T00:38:22.751Z,101014.20
2019-01-15T00:43:27.151Z,101021.22
2019-01-15T00:48:30.595Z,101016.13
2019-01-15T00:53:34.083Z,101015.97
2019-01-15T00:58:37.539Z,101018.19
2019-01-15T01:03:41.042Z,101015.52
2019-01-15T01:08:44.478Z,101017.03
2019-01-15T01:13:47.990Z,101019.73
2019-01-15T01:18:51.411Z,101021.09
2019-01-15T01:23:54.836Z,101043.42
2019-01-15T01:28:58.280Z,101034.09
2019-01-15T01:34:01.712Z,101035.12
2019-01-15T01:39:07.864Z,101039.53
2019-01-15T01:44:11.304Z,101032.35
2019-01-15T01:49:14.749Z,101032.25
2019-01-15T01:54:18.227Z,101015.17
2019-01-15T01:59:21.673Z,101012.17
2019-01-15T02:04:25.120Z,101020.37
2019-01-15T02:09:28.578Z,101018.86
2019-01-15T02:14:32.012Z,101022.40
2019-01-15T02:19:35.462Z,101017.54
2019-01-15T02:24:39.070Z,101000.38
2019-01-15T02:29:42.496Z,101003.25
2019-01-15T02:34:45.947Z,100991.52
2019-01-15T02:39:49.400Z,100994.16
2019-01-15T02:44:52.933Z,100993.05
2019-01-15T02:49:56.380Z,100999.94
2019-01-15T02:54:59.819Z,100999.94
2019-01-15T03:00:04.858Z,100999.39
2019-01-15T03:05:10.323Z,100994.66
2019-01-15T03:10:19.096Z,100989.64
2019-01-15T03:15:22.638Z,100983.65
2019-01-15T03:20:26.126Z,100984.04
2019-01-15T03:25:29.576Z,100986.64
2019-01-15T03:30:33.088Z,100987.16
2019-01-15T03:35:36.670Z,100989.40
2019-01-15T03:40:40.097Z,100997.52
2019-01-15T03:45:43.549Z,100999.41
2019-01-15T03:50:46.965Z,100990.69
2019-01-15T03:55:50.405Z,101002.37
2019-01-15T04:00:53.829Z,101012.12
2019-01-15T04:05:57.283Z,101008.23
2019-01-15T04:11:00.835Z,101001.38
2019-01-15T04:16:04.418Z,100994.09
2019-01-15T04:21:07.930Z,100994.64
2019-01-15T04:26:11.409Z,100980.87
2019-01-15T04:31:14.845Z,100985.18
2019-01-15T04:36:18.265Z,100983.95
2019-01-15T04:41:21.694Z,100976.67
2019-01-15T04:46:25.135Z,100980.66
2019-01-15T04:51:28.552Z,100979.94
2019-01-15T04:56:33.614Z,100967.14
2019-01-15T05:01:37.126Z,100966.75
2019-01-15T05:06:40.573Z,100959.92
2019-01-15T05:11:44.022Z,100959.61
2019-01-15T05:16:47.550Z,100951.30
2019-01-15T05:21:51.003Z,100939.67
2019-01-15T05:26:54.526Z,100934.23
2019-01-15T05:31:57.991Z,100927.41
2019-01-15T05:37:01.432Z,100926.95
2019-01-15T05:42:05.369Z,100924.49
2019-01-15T05:47:08.811Z,100903.25
2019-01-15T05:52:12.251Z,100886.47
2019-01-15T05:57:15.708Z,100892.41
2019-01-15T06:02:19.207Z,100896.30
2019-01-15T06:07:22.647Z,100888.12
2019-01-15T06:12:26.097Z,100864.45
2019-01-15T06:17:29.534Z,100859.75
2019-01-15T06:22:32.991Z,100862.47
2019-01-15T06:27:36.524Z,100857.23
2019-01-15T06:32:39.960Z,100867.52
2019-01-15T06:37:43.465Z,100847.52
2019-01-15T06:42:47.143Z,100859.24
2019-01-15T06:47:51.329Z,100858.06
2019-01-15T06:52:54.784Z,100846.16
2019-01-15T06:57:58.222Z,100847.89
2019-01-15T07:03:01.902Z,100823.06
2019-01-15T07:08:05.413Z,100832.66
2019-01-15T07:13:08.854Z,100834.39
2019-01-15T07:18:12.288Z,100835.86
2019-01-15T07:23:15.715Z,100830.65
2019-01-15T07:28:19.136Z,100855.74
2019-01-15T07:33:22.586Z,100854.95
2019-01-15T07:38:26.064Z,100849.84
2019-01-15T07:43:29.524Z,100857.14
2019-01-15T07:48:32.960Z,100850.76
2019-01-15T07:53:36.583Z,100840.05
2019-01-15T07:58:40.097Z,100834.05
2019-01-15T08:03:43.530Z,100844.02
2019-01-15T08:08:46.966Z,100854.02
2019-01-15T08:13:50.585Z,100846.00
2019-01-15T08:18:53.994Z,100849.48
2019-01-15T08:23:57.429Z,100850.55
2019-01-15T08:29:00.872Z,100839.38
2019-01-15T08:34:04.473Z,100841.13
2019-01-15T08:39:08.482Z,100829.14
2019-01-15T08:44:19.029Z,100825.88
2019-01-15T08:49:17.045Z,100823.38
2019-01-15T08:54:20.653Z,100829.52
2019-01-15T08:59:24.106Z,100838.38
2019-01-15T09:04:27.655Z,100832.48
2019-01-15T09:09:31.445Z,100830.81
2019-01-15T09:14:34.971Z,100828.70
2019-01-15T09:19:38.487Z,100817.02
2019-01-15T09:24:41.946Z,100815.01
2019-01-15T09:29:45.385Z,100809.92
2019-01-15T09:34:48.831Z,100810.00
2019-01-15T09:39:52.326Z,100813.95
2019-01-15T09:44:56.049Z,100806.28
2019-01-15T09:49:59.505Z,100811.89
2019-01-15T09:55:04.080Z,100806.41
2019-01-15T10:00:16.760Z,100796.15
2019-01-15T10:05:20.220Z,100806.60
2019-01-15T10:10:23.671Z,100802.34
2019-01-15T10:15:27.267Z,100801.94
2019-01-15T10:20:30.727Z,100801.55
2019-01-15T10:25:34.541Z,100786.42
2019-01-15T10:30:52.707Z,100791.65
2019-01-15T10:35:55.871Z,100784.85
2019-01-15T10:40:59.564Z,100783.95
2019-01-15T10:46:04.575Z,100786.16
2019-01-15T10:51:08.090Z,100778.02
2019-01-15T10:56:11.531Z,100776.34
2019-01-15T11:01:14.973Z,100778.52
2019-01-15T11:06:18.640Z,100766.05
2019-01-15T11:11:22.080Z,100766.48
2019-01-15T11:16:25.506Z,100759.16
2019-01-15T11:21:28.952Z,100751.00
2019-01-15T11:26:32.398Z,100744.11
2019-01-15T11:31:35.847Z,100737.30
2019-01-15T11:36:39.333Z,100735.19
2019-01-15T11:41:42.911Z,100727.03
2019-01-15T11:46:46.368Z,100730.48
2019-01-15T11:51:49.809Z,100731.81
2019-01-15T11:56:53.261Z,100721.03
2019-01-15T12:01:57.784Z,100711.17
2019-01-15T12:07:08.569Z,100712.07
2019-01-15T12:12:13.732Z,100702.20
2019-01-15T12:17:18.847Z,100679.34
2019-01-15T12:22:30.057Z,100672.02
2019-01-15T12:27:35.333Z,100665.59
2019-01-15T12:32:56.408Z,100671.24
2019-01-15T12:38:07.192Z,100675.55
2019-01-15T12:43:12.281Z,100683.79
2019-01-15T12:48:26.095Z,100683.77
2019-01-15T12:53:31.249Z,100681.16
2019-01-15T12:58:36.315Z,100678.13
2019-01-15T13:03:50.173Z,100681.17
2019-01-15T13:08:57.675Z,100680.72
2019-01-15T13:14:05.198Z,100675.55
2019-01-15T13:19:26.386Z,100672.06
2019-01-15T13:24:37.057Z,100655.67
2019-01-15T13:29:44.767Z,100646.18
2019-01-15T13:34:52.582Z,100652.66
2019-01-15T13:40:00.282Z,100647.02
2019-01-15T13:45:09.343Z,100632.77
2019-01-15T13:50:17.282Z,100637.55
2019-01-15T13:55:22.346Z,100631.47
2019-01-15T14:00:27.450Z,100626.74
2019-01-15T14:05:35.237Z,100628.03
2019-01-15T14:10:49.518Z,100632.79
2019-01-15T14:16:09.479Z,100622.41
2019-01-15T14:21:17.468Z,100624.56
2019-01-15T14:26:25.509Z,100620.68
2019-01-15T14:31:36.555Z,100621.98
2019-01-15T14:36:44.192Z,100617.66
2019-01-15T14:42:01.472Z,100621.98
2019-01-15T14:47:21.388Z,100618.52
2019-01-15T14:52:35.148Z,100611.17
2019-01-15T14:57:45.887Z,100604.70
2019-01-15T15:02:50.964Z,100607.30
2019-01-15T15:08:01.722Z,100605.11
2019-01-15T15:13:15.915Z,100612.02
2019-01-15T15:18:23.416Z,100618.91
2019-01-15T15:23:37.148Z,100618.06
2019-01-15T15:28:57.519Z,100622.39
2019-01-15T15:34:11.360Z,100615.48
2019-01-15T15:39:32.693Z,100619.36
2019-01-15T15:44:52.609Z,100613.30
2019-01-15T15:50:12.810Z,100602.94
2019-01-15T15:55:17.896Z,100609.85
2019-01-15T16:00:39.065Z,100617.20
2019-01-15T16:05:46.836Z,100615.02
2019-01-15T16:10:57.608Z,100619.77
2019-01-15T16:16:02.759Z,100617.17
2019-01-15T16:21:19.853Z,100615.02
2019-01-15T16:26:24.938Z,100611.97
2019-01-15T16:31:30.028Z,100610.70
2019-01-15T16:36:51.081Z,100615.86
2019-01-15T16:41:56.217Z,100606.38
2019-01-15T16:47:01.234Z,100600.74
2019-01-15T16:52:12.275Z,100605.49
2019-01-15T16:57:22.917Z,100599.00
2019-01-15T17:02:43.909Z,100602.50
2019-01-15T17:07:51.711Z,100593.42
2019-01-15T17:12:59.487Z,100598.15
2019-01-15T17:18:10.234Z,100590.38
2019-01-15T17:23:15.300Z,100587.80
2019-01-15T17:28:20.386Z,100591.67
2019-01-15T17:33:40.139Z,100592.56
2019-01-15T17:38:53.785Z,100587.78
2019-01-15T17:44:05.005Z,100593.42
2019-01-15T17:49:25.979Z,100586.97
2019-01-15T17:54:31.064Z,100593.44
2019-01-15T17:59:36.170Z,100589.55
2019-01-15T18:04:41.247Z,100569.24
2019-01-15T18:09:48.943Z,100585.66
2019-01-15T18:15:11.811Z,100591.27
2019-01-15T18:20:31.668Z,100586.52
2019-01-15T18:25:36.748Z,100588.67
2019-01-15T18:30:57.716Z,100589.98
2019-01-15T18:36:19.194Z,100592.14
2019-01-15T18:41:33.052Z,100586.52
2019-01-15T18:46:38.210Z,100586.52
2019-01-15T18:51:59.465Z,100589.98
2019-01-15T18:57:07.241Z,100596.89
2019-01-15T19:02:12.326Z,100593.45
2019-01-15T19:07:23.529Z,100596.45
2019-01-15T19:12:28.604Z,100589.56
2019-01-15T19:17:42.633Z,100598.19
2019-01-15T19:22:47.708Z,100588.72
2019-01-15T19:28:13.527Z,100597.78
2019-01-15T19:33:21.012Z,100589.14
2019-01-15T19:38:26.171Z,100583.53
2019-01-15T19:43:47.142Z,100589.14
2019-01-15T19:48:54.871Z,100585.23
2019-01-15T19:54:02.375Z,100588.28
2019-01-15T19:59:10.294Z,100598.66
2019-01-15T20:04:26.897Z,100586.54
2019-01-15T20:09:48.263Z,100599.05
2019-01-15T20:15:09.560Z,100603.37
2019-01-15T20:20:14.789Z,100602.09
2019-01-15T20:25:22.467Z,100602.91
2019-01-15T20:30:27.637Z,100606.40
2019-01-15T20:35:48.336Z,100609.84
2019-01-15T20:41:09.277Z,100606.80
2019-01-15T20:46:17.165Z,100612.02
2019-01-15T20:51:27.993Z,100609.41
2019-01-15T20:56:35.499Z,100606.80
2019-01-15T21:01:46.694Z,100612.86
2019-01-15T21:07:00.561Z,100612.42
2019-01-15T21:12:23.480Z,100621.05
2019-01-15T21:17:32.857Z,100605.92
2019-01-15T21:22:41.397Z,100607.25
2019-01-15T21:27:49.005Z,100606.37
2019-01-15T21:33:09.188Z,100605.09
2019-01-15T21:38:26.059Z,100597.32
2019-01-15T21:43:46.212Z,100603.38
2019-01-15T21:48:51.360Z,100601.20
2019-01-15T21:53:56.442Z,100597.33
2019-01-15T21:59:09.985Z,100602.52
2019-01-15T22:04:23.677Z,100601.67
2019-01-15T22:09:31.481Z,100603.37
2019-01-15T22:14:48.625Z,100591.72
2019-01-15T22:20:02.624Z,100597.34
2019-01-15T22:25:25.837Z,100593.88
2019-01-15T22:30:36.357Z,100590.41
2019-01-15T22:35:47.429Z,100583.08
2019-01-15T22:41:04.193Z,100578.77
2019-01-15T22:46:09.278Z,100581.36
2019-01-15T22:51:14.348Z,100572.28
2019-01-15T22:56:22.585Z,100574.02
2019-01-15T23:01:45.571Z,100574.44
2019-01-15T23:06:53.333Z,100574.89
2019-01-15T23:11:58.413Z,100562.77
2019-01-15T23:17:19.172Z,100555.45
2019-01-15T23:22:24.270Z,100556.73
2019-01-15T23:27:29.362Z,100550.70
2019-01-15T23:32:37.323Z,100547.66
2019-01-15T23:37:51.050Z,100544.20
2019-01-15T23:42:58.893Z,100537.72
2019-01-15T23:48:10.115Z,100519.57
2019-01-15T23:53:15.211Z,100517.42
2019-01-15T23:58:37.847Z,100518.70
